Time;durP1;ratioP1;P1;durP2;ratioP2;P2;SDS_P1;SDS_P2;PMS_P1;PMS_P2;Temp;Humidity;BMP_temperature;BMP_pressure;BME280_temperature;BME280_humidity;BME280_pressure;Samples;Min_cycle;Max_cycle;Signal;HPM_P1;HPM_P2
2022/06/29 00:00:20;;;;;;;7.00;5.90;;;30.50;60.90;;;;;;5068875;28;20463;-78
2022/06/29 00:02:46;;;;;;;7.40;5.40;;;30.30;61.30;;;;;;5072758;28;20029;-77
2022/06/29 00:05:14;;;;;;;6.55;5.85;;;30.10;61.80;;;;;;5071142;28;20029;-76
2022/06/29 00:07:41;;;;;;;8.63;5.70;;;30.10;62.10;;;;;;5054270;28;20478;-78
2022/06/29 00:10:08;;;;;;;7.25;6.30;;;29.90;62.50;;;;;;5053229;28;20031;-77
2022/06/29 00:12:34;;;;;;;7.65;5.88;;;30.00;62.40;;;;;;5051793;28;20025;-78
2022/06/29 00:15:03;;;;;;;7.93;6.72;;;30.00;62.30;;;;;;5051765;28;20072;-78
2022/06/29 00:17:31;;;;;;;7.38;6.13;;;30.10;62.10;;;;;;5053180;28;20022;-77
2022/06/29 00:19:58;;;;;;;6.97;5.85;;;30.20;62.10;;;;;;5051747;28;20024;-78
2022/06/29 00:22:24;;;;;;;6.22;5.60;;;30.20;62.10;;;;;;5051747;28;20040;-78
2022/06/29 00:24:50;;;;;;;8.88;6.10;;;30.00;62.20;;;;;;5060993;28;20467;-77
2022/06/29 00:27:16;;;;;;;8.70;5.80;;;29.90;62.30;;;;;;5071458;28;20038;-78
2022/06/29 00:29:42;;;;;;;7.55;6.10;;;29.90;62.40;;;;;;5072838;28;20078;-76
2022/06/29 00:32:08;;;;;;;8.13;6.50;;;29.90;62.40;;;;;;5072327;28;20043;-78
2022/06/29 00:34:34;;;;;;;7.18;6.00;;;29.90;62.30;;;;;;5061991;28;20036;-77
2022/06/29 00:36:59;;;;;;;8.38;6.45;;;30.00;62.00;;;;;;5068605;28;20044;-78
2022/06/29 00:39:25;;;;;;;9.20;6.40;;;30.00;61.90;;;;;;5071607;28;20024;-78
2022/06/29 00:41:51;;;;;;;7.68;6.28;;;30.10;61.70;;;;;;5072906;28;20021;-78
2022/06/29 00:44:19;;;;;;;7.75;6.18;;;30.00;62.00;;;;;;5062773;28;20501;-78
2022/06/29 00:46:57;;;;;;;7.10;6.00;;;29.80;62.60;;;;;;5052359;28;20163;-78
2022/06/29 00:49:24;;;;;;;8.77;6.00;;;29.90;62.70;;;;;;5048998;28;20068;-78
2022/06/29 00:52:09;;;;;;;7.82;5.68;;;29.80;62.90;;;;;;5052496;28;20029;-78
2022/06/29 00:54:45;;;;;;;7.43;6.57;;;29.80;63.00;;;;;;5061162;28;20123;-78
2022/06/29 00:57:20;;;;;;;6.30;5.70;;;29.70;62.60;;;;;;5072557;28;20364;-78
2022/06/29 00:59:52;;;;;;;7.75;6.72;;;29.80;62.50;;;;;;5070468;28;20032;-78
2022/06/29 01:02:21;;;;;;;9.48;6.60;;;29.80;63.10;;;;;;5071989;28;20430;-78
2022/06/29 01:04:47;;;;;;;7.80;6.80;;;29.80;62.80;;;;;;5070649;28;20016;-78
2022/06/29 01:07:15;;;;;;;9.45;6.30;;;29.90;63.40;;;;;;5071971;28;20029;-77
2022/06/29 01:09:41;;;;;;;8.40;6.78;;;29.90;63.10;;;;;;5071860;28;20027;-78
2022/06/29 01:12:07;;;;;;;10.43;5.78;;;30.00;62.50;;;;;;5070574;28;20021;-78
2022/06/29 01:14:33;;;;;;;8.35;6.53;;;30.10;62.60;;;;;;5070668;28;20029;-78
2022/06/29 01:16:59;;;;;;;7.90;6.00;;;29.80;63.30;;;;;;5074784;28;20099;-78
2022/06/29 01:19:25;;;;;;;7.88;6.35;;;29.60;63.60;;;;;;5075219;28;20024;-78
2022/06/29 01:21:53;;;;;;;8.05;6.07;;;29.60;63.60;;;;;;5068444;28;20060;-77
2022/06/29 01:24:20;;;;;;;8.68;6.40;;;29.70;63.20;;;;;;5056283;28;20047;-78
2022/06/29 01:26:46;;;;;;;7.03;6.32;;;29.70;62.90;;;;;;5055065;28;20028;-79
2022/06/29 01:29:12;;;;;;;8.27;6.28;;;29.60;63.20;;;;;;5056050;28;20032;-78
2022/06/29 01:31:38;;;;;;;8.82;6.15;;;29.50;63.80;;;;;;5055705;28;20013;-78
2022/06/29 01:34:03;;;;;;;7.82;7.03;;;29.40;63.90;;;;;;5054203;28;20039;-76
2022/06/29 01:36:29;;;;;;;7.70;6.90;;;29.20;63.90;;;;;;5074252;28;20028;-77
2022/06/29 01:38:55;;;;;;;8.88;7.30;;;29.30;63.00;;;;;;5074618;28;20453;-78
2022/06/29 01:41:20;;;;;;;9.27;7.65;;;29.20;63.10;;;;;;5072730;28;20050;-78
2022/06/29 01:43:46;;;;;;;8.13;7.25;;;29.30;62.70;;;;;;5063435;28;20067;-78
2022/06/29 01:46:12;;;;;;;8.20;7.38;;;29.40;62.10;;;;;;5074566;28;20016;-78
2022/06/29 01:48:37;;;;;;;11.27;7.93;;;29.50;61.90;;;;;;5074121;28;20032;-78
2022/06/29 01:51:03;;;;;;;8.73;7.93;;;29.60;61.70;;;;;;5075331;28;20025;-78
2022/06/29 01:53:29;;;;;;;9.82;7.95;;;29.70;61.60;;;;;;5075311;28;20028;-77
2022/06/29 01:55:55;;;;;;;9.35;8.45;;;29.80;61.20;;;;;;5057864;28;20053;-78
2022/06/29 01:58:21;;;;;;;9.75;8.52;;;29.90;61.10;;;;;;5055327;28;20519;-78
2022/06/29 02:00:46;;;;;;;10.98;8.38;;;29.70;61.30;;;;;;5055581;28;20056;-78
2022/06/29 02:03:12;;;;;;;10.93;9.07;;;29.60;61.60;;;;;;5058295;28;20104;-78
2022/06/29 02:05:38;;;;;;;10.07;8.27;;;29.60;61.70;;;;;;5074260;28;20033;-78
2022/06/29 02:08:04;;;;;;;9.35;8.25;;;29.60;61.70;;;;;;5075429;28;20016;-79
2022/06/29 02:10:30;;;;;;;10.02;8.48;;;29.80;61.70;;;;;;5075601;28;20035;-78
2022/06/29 02:12:56;;;;;;;9.25;7.97;;;29.70;61.40;;;;;;5073617;28;20048;-77
2022/06/29 02:15:23;;;;;;;10.35;9.25;;;29.10;62.30;;;;;;5069163;28;20166;-78
2022/06/29 02:17:50;;;;;;;11.20;8.18;;;28.90;62.80;;;;;;5073271;28;20029;-78
2022/06/29 02:20:15;;;;;;;9.95;8.90;;;29.00;62.50;;;;;;5075321;28;20058;-78
2022/06/29 02:22:41;;;;;;;9.75;8.10;;;29.30;62.00;;;;;;5069404;28;20025;-78
2022/06/29 02:25:08;;;;;;;8.93;7.57;;;29.50;61.60;;;;;;5055116;28;20103;-79
2022/06/29 02:27:33;;;;;;;9.18;8.27;;;29.50;61.40;;;;;;5054701;28;20021;-77
2022/06/29 02:29:59;;;;;;;9.07;8.02;;;29.40;61.50;;;;;;5055126;28;20091;-77
2022/06/29 02:35:09;;;;;;;10.65;8.60;;;29.10;61.70;;;;;;5054949;28;20522;-77
2022/06/29 02:37:38;;;;;;;12.35;9.05;;;29.00;62.20;;;;;;5070066;28;20116;-77
2022/06/29 02:40:04;;;;;;;10.07;9.07;;;28.90;62.30;;;;;;5052797;28;20021;-78
2022/06/29 02:42:30;;;;;;;11.95;8.88;;;28.90;62.50;;;;;;5055191;28;20063;-78
2022/06/29 02:44:56;;;;;;;11.77;8.77;;;28.90;62.40;;;;;;5052898;28;20048;-78
2022/06/29 02:47:21;;;;;;;9.73;8.73;;;29.00;62.30;;;;;;5053752;28;20368;-77
2022/06/29 02:49:47;;;;;;;11.73;9.43;;;29.00;62.50;;;;;;5052316;28;20025;-79
2022/06/29 02:52:12;;;;;;;10.80;9.48;;;29.00;62.40;;;;;;5054678;28;20383;-78
2022/06/29 02:54:38;;;;;;;10.70;8.88;;;29.10;62.20;;;;;;5052633;28;20526;-78
2022/06/29 02:57:04;;;;;;;10.23;8.98;;;29.20;62.20;;;;;;5054680;28;20029;-79
2022/06/29 02:59:30;;;;;;;11.13;9.40;;;29.30;62.10;;;;;;5053075;28;20427;-78
2022/06/29 03:01:56;;;;;;;9.57;7.78;;;29.30;62.10;;;;;;5053113;28;20029;-78
2022/06/29 03:04:22;;;;;;;8.93;7.60;;;29.30;62.30;;;;;;5066984;28;20052;-77
2022/06/29 03:06:48;;;;;;;9.93;7.90;;;28.60;63.70;;;;;;5074097;28;20170;-78
2022/06/29 03:09:13;;;;;;;9.38;8.38;;;28.20;65.20;;;;;;5072931;28;20115;-78
2022/06/29 03:11:39;;;;;;;9.68;8.73;;;28.40;64.60;;;;;;5074332;28;20431;-78
2022/06/29 03:14:05;;;;;;;10.15;8.68;;;28.70;63.70;;;;;;5070369;28;20036;-77
2022/06/29 03:16:30;;;;;;;9.50;8.52;;;29.00;63.00;;;;;;5072825;28;20024;-77
2022/06/29 03:18:56;;;;;;;9.63;8.63;;;29.10;62.70;;;;;;5053843;28;20028;-77
2022/06/29 03:21:22;;;;;;;11.90;9.32;;;29.10;62.50;;;;;;5053971;28;20021;-78
2022/06/29 03:23:47;;;;;;;10.57;9.48;;;29.10;62.60;;;;;;5053384;28;20029;-77
2022/06/29 03:26:13;;;;;;;11.07;9.73;;;29.10;62.80;;;;;;5053608;28;20180;-78
2022/06/29 03:28:39;;;;;;;10.15;9.07;;;29.20;62.60;;;;;;5052739;28;20031;-78
2022/06/29 03:31:05;;;;;;;10.68;9.63;;;29.30;62.50;;;;;;5052389;28;20044;-78
2022/06/29 03:33:31;;;;;;;10.23;8.20;;;29.40;62.60;;;;;;5051935;28;20037;-77
2022/06/29 03:35:57;;;;;;;9.68;8.50;;;29.40;62.60;;;;;;5052513;28;20025;-77
2022/06/29 03:38:23;;;;;;;10.77;9.68;;;29.40;62.60;;;;;;5052948;28;20075;-78
2022/06/29 03:40:49;;;;;;;11.68;8.95;;;29.50;62.40;;;;;;5051271;28;20029;-77
2022/06/29 03:43:14;;;;;;;10.88;9.15;;;29.60;62.40;;;;;;5053338;28;20025;-78
2022/06/29 03:45:40;;;;;;;11.43;9.80;;;29.60;62.20;;;;;;5052520;28;20099;-78
2022/06/29 03:48:06;;;;;;;9.43;8.50;;;29.60;62.40;;;;;;5053520;28;20037;-78
2022/06/29 03:50:32;;;;;;;10.30;9.25;;;29.60;62.70;;;;;;5052273;28;20025;-78
2022/06/29 03:52:58;;;;;;;10.90;9.40;;;29.70;63.20;;;;;;5069043;28;20074;-77
2022/06/29 03:55:24;;;;;;;11.18;9.20;;;29.60;63.10;;;;;;5072905;28;20057;-77
2022/06/29 03:57:49;;;;;;;9.88;8.85;;;29.70;62.90;;;;;;5073300;28;20024;-77
2022/06/29 04:00:16;;;;;;;10.55;9.45;;;29.80;62.40;;;;;;5072087;28;20025;-78
2022/06/29 04:02:41;;;;;;;10.90;9.13;;;29.90;62.40;;;;;;5066969;28;20031;-78
2022/06/29 04:05:08;;;;;;;8.73;7.78;;;29.90;62.40;;;;;;5072928;28;20037;-78
2022/06/29 04:07:35;;;;;;;10.27;9.30;;;30.00;62.60;;;;;;5072617;28;20391;-77
2022/06/29 04:10:01;;;;;;;10.82;7.60;;;29.80;62.90;;;;;;5073324;28;20056;-78
2022/06/29 04:12:31;;;;;;;9.93;8.32;;;29.70;63.20;;;;;;5068707;28;20044;-78
2022/06/29 04:14:57;;;;;;;9.98;8.88;;;29.70;63.60;;;;;;5069708;28;20059;-78
2022/06/29 04:17:23;;;;;;;11.15;8.50;;;29.90;63.30;;;;;;5073063;28;20103;-78
2022/06/29 04:19:52;;;;;;;12.05;9.07;;;30.10;62.90;;;;;;5063940;28;20104;-78
2022/06/29 04:22:19;;;;;;;11.57;9.30;;;30.40;62.70;;;;;;5053252;28;20053;-78
2022/06/29 04:24:45;;;;;;;9.80;8.50;;;30.60;62.50;;;;;;5052908;28;20095;-78
2022/06/29 04:27:12;;;;;;;11.43;9.40;;;30.60;62.40;;;;;;5065699;28;20495;-78
2022/06/29 04:29:37;;;;;;;11.35;9.57;;;30.60;62.20;;;;;;5054842;28;20029;-78
2022/06/29 04:32:04;;;;;;;12.65;8.57;;;30.70;62.10;;;;;;5051590;28;20036;-78
2022/06/29 04:34:29;;;;;;;11.18;8.93;;;30.60;61.30;;;;;;5062013;28;20041;-78
2022/06/29 04:36:55;;;;;;;9.23;8.18;;;30.70;61.80;;;;;;5054091;28;20032;-78
2022/06/29 04:39:21;;;;;;;10.10;8.93;;;30.70;62.30;;;;;;5050802;28;20025;-78
2022/06/29 04:41:48;;;;;;;9.32;7.97;;;30.70;62.50;;;;;;5053285;28;20029;-78
2022/06/29 04:44:14;;;;;;;10.68;8.80;;;30.90;61.90;;;;;;5051277;28;20021;-78
2022/06/29 04:46:40;;;;;;;9.73;8.20;;;31.10;61.70;;;;;;5055336;28;20064;-77
2022/06/29 04:49:06;;;;;;;11.63;8.93;;;31.30;61.70;;;;;;5064602;28;20063;-78
2022/06/29 04:51:33;;;;;;;10.00;8.68;;;31.40;61.60;;;;;;5067837;28;20017;-78
2022/06/29 04:54:00;;;;;;;9.60;8.13;;;31.60;61.40;;;;;;5052582;28;20037;-78
2022/06/29 04:56:31;;;;;;;7.82;7.03;;;31.70;61.10;;;;;;5052201;28;20420;-77
2022/06/29 04:58:58;;;;;;;9.40;8.40;;;31.60;61.00;;;;;;5055804;28;20021;-79
2022/06/29 05:01:25;;;;;;;8.32;7.32;;;31.60;61.30;;;;;;5071071;28;20021;-78
2022/06/29 05:03:52;;;;;;;11.27;9.00;;;31.70;61.10;;;;;;5056759;28;20028;-77
2022/06/29 05:06:18;;;;;;;8.63;7.45;;;31.90;61.00;;;;;;5051095;28;20029;-77
2022/06/29 05:08:43;;;;;;;12.32;7.93;;;32.10;60.50;;;;;;5051191;28;20029;-77
2022/06/29 05:11:10;;;;;;;9.70;8.40;;;32.10;60.10;;;;;;5051134;28;20029;-76
2022/06/29 05:13:35;;;;;;;10.00;8.15;;;32.10;60.30;;;;;;5055941;28;20024;-77
2022/06/29 05:16:01;;;;;;;8.27;7.45;;;32.20;60.40;;;;;;5051519;28;20044;-78
2022/06/29 05:18:28;;;;;;;10.27;7.07;;;32.40;60.10;;;;;;5050375;28;20029;-76
2022/06/29 05:20:54;;;;;;;8.55;7.35;;;32.00;59.50;;;;;;5051810;28;20029;-77
2022/06/29 05:23:20;;;;;;;8.73;5.90;;;32.00;60.00;;;;;;5070406;28;20501;-77
2022/06/29 05:25:46;;;;;;;8.88;6.97;;;32.20;59.50;;;;;;5064736;28;20028;-76
2022/06/29 05:28:11;;;;;;;8.65;7.70;;;32.20;60.00;;;;;;5054879;28;20036;-77
2022/06/29 05:30:38;;;;;;;7.95;6.88;;;32.30;60.30;;;;;;5054265;28;20044;-76
2022/06/29 05:33:04;;;;;;;7.43;6.35;;;32.40;60.00;;;;;;5070524;28;20020;-75
2022/06/29 05:35:33;;;;;;;8.70;6.32;;;32.50;59.10;;;;;;5077728;28;20040;-75
2022/06/29 05:38:00;;;;;;;7.78;6.60;;;32.60;59.20;;;;;;5090190;28;20455;-76
2022/06/29 05:40:26;;;;;;;8.40;6.40;;;32.60;58.70;;;;;;5091472;28;20024;-74
2022/06/29 05:42:52;;;;;;;8.07;6.15;;;32.70;58.70;;;;;;5079228;28;20024;-75
2022/06/29 05:45:18;;;;;;;11.13;6.45;;;32.60;58.80;;;;;;5051748;28;20025;-76
2022/06/29 05:47:44;;;;;;;10.07;6.68;;;32.40;59.20;;;;;;5052045;28;20021;-75
2022/06/29 05:50:10;;;;;;;9.73;6.40;;;32.40;59.40;;;;;;5050700;28;20086;-77
2022/06/29 05:52:37;;;;;;;9.98;6.25;;;32.60;58.80;;;;;;5051636;28;20024;-76
2022/06/29 05:55:04;;;;;;;7.45;5.90;;;32.80;58.80;;;;;;5050385;28;20045;-78
2022/06/29 05:57:30;;;;;;;7.90;6.25;;;32.70;58.70;;;;;;5051337;28;20028;-76
2022/06/29 05:59:56;;;;;;;7.55;6.07;;;32.90;58.40;;;;;;5050644;28;20029;-75
2022/06/29 06:02:21;;;;;;;11.02;6.30;;;33.00;57.50;;;;;;5053076;28;20083;-76
2022/06/29 06:04:47;;;;;;;8.18;5.97;;;33.20;57.10;;;;;;5068806;28;20058;-75
2022/06/29 06:07:13;;;;;;;8.25;5.68;;;33.40;56.30;;;;;;5058448;28;20035;-80
2022/06/29 06:09:39;;;;;;;8.27;5.70;;;33.50;56.30;;;;;;5064255;28;20427;-79
2022/06/29 06:12:05;;;;;;;7.93;6.28;;;33.70;55.70;;;;;;4721958;28;10000115;-76
2022/06/29 06:14:31;;;;;;;7.63;6.07;;;33.90;56.10;;;;;;5066931;28;20718;-76
2022/06/29 06:16:56;;;;;;;8.05;5.93;;;33.90;55.80;;;;;;5060730;28;20017;-74
2022/06/29 06:19:22;;;;;;;7.80;5.68;;;33.90;55.20;;;;;;5071585;28;20086;-76
2022/06/29 06:21:48;;;;;;;10.13;5.90;;;34.00;55.40;;;;;;5058023;28;20047;-75
2022/06/29 06:24:13;;;;;;;7.45;5.70;;;34.20;55.60;;;;;;5051132;28;20499;-77
2022/06/29 06:26:39;;;;;;;7.63;5.80;;;34.30;54.50;;;;;;5058342;28;20410;-78
2022/06/29 06:29:05;;;;;;;11.05;5.55;;;34.40;54.70;;;;;;5090610;28;20028;-75
2022/06/29 06:31:31;;;;;;;7.60;5.65;;;34.00;54.80;;;;;;5086181;28;20027;-76
2022/06/29 06:33:57;;;;;;;8.85;5.72;;;33.90;54.80;;;;;;5062999;28;20036;-76
2022/06/29 06:36:23;;;;;;;7.20;5.75;;;33.90;55.60;;;;;;5049241;28;20033;-72
2022/06/29 06:38:48;;;;;;;9.70;5.80;;;33.90;55.20;;;;;;5049727;28;20139;-75
2022/06/29 06:41:25;;;;;;;10.60;5.88;;;34.10;54.70;;;;;;5053899;28;20033;-75
2022/06/29 06:43:58;;;;;;;8.25;5.50;;;34.30;54.40;;;;;;5060648;28;20031;-77
2022/06/29 06:46:25;;;;;;;7.22;5.70;;;34.30;53.70;;;;;;5068870;28;20044;-82
2022/06/29 06:48:54;;;;;;;7.65;5.95;;;33.80;53.70;;;;;;5061224;28;20029;-77
2022/06/29 06:51:21;;;;;;;7.45;5.63;;;32.90;55.50;;;;;;5050385;28;20061;-76
2022/06/29 06:53:48;;;;;;;10.07;5.93;;;33.00;56.10;;;;;;5050416;28;20071;-75
2022/06/29 06:56:14;;;;;;;7.78;5.72;;;33.40;55.10;;;;;;5050618;28;20049;-77
2022/06/29 06:58:41;;;;;;;9.10;5.95;;;32.90;55.40;;;;;;5060439;28;20039;-76
2022/06/29 07:01:07;;;;;;;10.02;6.18;;;32.90;56.40;;;;;;5054127;28;20036;-76
2022/06/29 07:03:36;;;;;;;7.82;5.22;;;33.10;55.00;;;;;;5051349;28;20021;-77
2022/06/29 07:06:06;;;;;;;6.70;5.57;;;33.70;55.20;;;;;;5049623;28;20041;-76
2022/06/29 07:08:33;;;;;;;8.30;5.72;;;34.10;55.70;;;;;;5052291;28;20032;-75
2022/06/29 07:11:00;;;;;;;8.07;5.93;;;34.40;55.10;;;;;;5050193;28;20494;-77
2022/06/29 07:13:26;;;;;;;10.77;6.28;;;34.80;54.70;;;;;;5064524;28;20029;-75
2022/06/29 07:15:52;;;;;;;7.57;6.15;;;35.10;54.40;;;;;;5059097;28;20647;-77
2022/06/29 07:18:18;;;;;;;9.35;5.95;;;34.50;54.00;;;;;;5060156;28;20364;-75
2022/06/29 07:20:44;;;;;;;7.15;5.90;;;34.30;56.20;;;;;;5059268;28;20517;-75
2022/06/29 07:23:10;;;;;;;8.95;5.53;;;34.20;54.70;;;;;;5073532;28;20032;-77
2022/06/29 07:25:35;;;;;;;8.48;5.75;;;34.00;54.60;;;;;;5069498;28;20112;-74
2022/06/29 07:28:02;;;;;;;9.13;5.20;;;33.70;55.70;;;;;;5061942;28;20120;-76
2022/06/29 07:30:27;;;;;;;7.82;5.82;;;33.50;55.80;;;;;;5053802;28;20178;-77
2022/06/29 07:32:53;;;;;;;8.77;5.57;;;33.10;55.70;;;;;;5049672;28;20119;-77
2022/06/29 07:35:19;;;;;;;8.75;6.00;;;33.10;57.00;;;;;;5055236;28;20029;-78
2022/06/29 07:37:44;;;;;;;7.63;5.82;;;33.10;56.20;;;;;;5063576;28;20517;-75
2022/06/29 07:40:11;;;;;;;8.43;5.60;;;33.40;56.20;;;;;;5071542;28;20410;-82
2022/06/29 07:42:38;;;;;;;7.53;5.72;;;33.50;55.20;;;;;;5064120;28;20017;-86
2022/06/29 07:45:05;;;;;;;7.97;5.95;;;33.50;56.20;;;;;;5071875;28;20077;-74
2022/06/29 07:47:31;;;;;;;7.38;5.57;;;33.60;56.00;;;;;;5048608;28;20037;-76
2022/06/29 07:49:58;;;;;;;8.60;5.75;;;34.10;55.60;;;;;;5080049;28;20020;-76
2022/06/29 07:52:24;;;;;;;9.40;5.72;;;34.30;54.80;;;;;;5071446;28;20024;-77
2022/06/29 07:54:51;;;;;;;10.35;5.85;;;34.10;55.80;;;;;;5079442;28;20051;-75
2022/06/29 07:57:17;;;;;;;6.38;5.63;;;34.30;55.90;;;;;;5056597;28;20032;-77
2022/06/29 07:59:43;;;;;;;7.13;5.88;;;34.50;54.80;;;;;;5069134;28;20031;-76
2022/06/29 08:02:09;;;;;;;7.70;5.35;;;34.70;54.30;;;;;;5079455;28;20058;-75
2022/06/29 08:04:35;;;;;;;8.68;5.50;;;34.50;54.40;;;;;;5078132;28;20042;-75
2022/06/29 08:07:01;;;;;;;6.95;5.32;;;34.40;54.10;;;;;;5087028;28;20031;-77
2022/06/29 08:09:26;;;;;;;7.53;6.13;;;34.30;54.30;;;;;;5066250;28;20155;-77
2022/06/29 08:11:52;;;;;;;6.88;5.72;;;34.20;54.80;;;;;;5075130;28;20019;-77
2022/06/29 08:14:18;;;;;;;8.27;5.55;;;34.40;55.80;;;;;;5060312;28;20048;-76
2022/06/29 08:16:43;;;;;;;11.27;5.63;;;34.60;54.70;;;;;;5079609;28;20455;-78
2022/06/29 08:19:09;;;;;;;8.63;6.05;;;34.60;54.20;;;;;;5083692;28;20527;-76
2022/06/29 08:21:35;;;;;;;8.75;5.80;;;34.70;54.70;;;;;;5069539;28;20357;-76
2022/06/29 08:24:01;;;;;;;7.72;5.80;;;34.80;54.20;;;;;;5066941;28;20021;-77
2022/06/29 08:26:26;;;;;;;7.20;5.68;;;34.70;54.00;;;;;;5068027;28;20024;-80
2022/06/29 08:28:52;;;;;;;6.57;5.32;;;34.90;54.30;;;;;;5069064;28;20052;-80
2022/06/29 08:31:18;;;;;;;7.32;5.30;;;34.90;53.40;;;;;;5064343;28;20079;-78
2022/06/29 08:33:45;;;;;;;7.43;5.80;;;35.00;55.00;;;;;;5050495;28;20563;-77
2022/06/29 08:36:12;;;;;;;8.30;5.38;;;35.40;53.10;;;;;;5046402;28;20078;-88
2022/06/29 08:38:39;;;;;;;5.45;4.75;;;35.70;53.50;;;;;;5057015;28;20024;-78
2022/06/29 08:41:06;;;;;;;8.20;5.25;;;35.80;52.00;;;;;;5054683;28;20021;-80
2022/06/29 08:43:32;;;;;;;8.65;5.13;;;35.90;52.80;;;;;;5050782;28;20029;-76
2022/06/29 08:45:58;;;;;;;9.35;5.50;;;36.10;52.50;;;;;;5052405;28;20028;-79
2022/06/29 08:48:24;;;;;;;8.13;5.45;;;35.90;52.90;;;;;;5052933;28;20083;-79
2022/06/29 08:50:53;;;;;;;6.10;5.10;;;36.00;53.00;;;;;;5052377;28;20068;-80
2022/06/29 08:53:20;;;;;;;10.23;5.28;;;36.10;52.20;;;;;;5051327;28;20040;-77
2022/06/29 08:55:49;;;;;;;7.00;5.00;;;36.10;52.30;;;;;;5052656;28;20084;-79
2022/06/29 08:58:22;;;;;;;6.10;4.60;;;36.30;52.60;;;;;;5051660;28;20025;-78
2022/06/29 09:00:49;;;;;;;5.63;4.63;;;36.20;51.70;;;;;;5051152;28;20025;-79
2022/06/29 09:03:19;;;;;;;6.50;4.90;;;36.60;51.90;;;;;;5050879;28;20028;-78
2022/06/29 09:05:55;;;;;;;7.53;4.93;;;36.80;51.50;;;;;;5052446;28;20025;-78
2022/06/29 09:08:21;;;;;;;7.03;4.80;;;36.80;51.10;;;;;;5051326;28;20029;-78
2022/06/29 09:10:48;;;;;;;6.30;5.03;;;36.70;51.00;;;;;;5052816;28;20435;-78
2022/06/29 09:13:21;;;;;;;6.82;4.60;;;36.80;50.80;;;;;;5052898;28;20034;-77
2022/06/29 09:15:47;;;;;;;9.60;5.20;;;36.60;50.00;;;;;;5052469;28;20029;-86
2022/06/29 09:18:31;;;;;;;6.78;4.75;;;36.60;50.90;;;;;;5051670;28;20459;-79
2022/06/29 09:21:03;;;;;;;10.20;5.00;;;36.90;50.20;;;;;;5051487;28;20056;-80
2022/06/29 09:23:30;;;;;;;9.50;4.95;;;37.10;49.90;;;;;;5051420;28;20116;-80
2022/06/29 09:25:56;;;;;;;15.50;4.90;;;37.20;48.80;;;;;;5052112;28;20106;-78
2022/06/29 09:28:31;;;;;;;6.65;4.78;;;37.40;49.80;;;;;;5052263;28;20463;-82
2022/06/29 09:30:59;;;;;;;5.95;4.60;;;37.50;48.70;;;;;;5052610;28;20499;-81
2022/06/29 09:33:33;;;;;;;7.07;4.40;;;37.40;49.60;;;;;;5051374;28;20029;-78
2022/06/29 09:36:16;;;;;;;8.18;4.45;;;37.60;49.50;;;;;;5051697;28;20090;-81
2022/06/29 09:38:42;;;;;;;6.60;4.30;;;37.50;49.50;;;;;;5055019;28;20032;-78
2022/06/29 09:41:15;;;;;;;8.98;4.60;;;37.60;49.80;;;;;;5056281;28;20100;-79
2022/06/29 09:43:45;;;;;;;7.93;4.30;;;37.60;49.30;;;;;;5056410;28;20056;-78
2022/06/29 09:46:15;;;;;;;4.72;4.18;;;38.00;49.20;;;;;;5054786;28;20029;-78
2022/06/29 09:48:42;;;;;;;6.97;4.40;;;38.30;48.30;;;;;;5056232;28;20045;-79
2022/06/29 09:54:01;;;;;;;5.35;4.40;;;38.60;49.00;;;;;;5056032;28;20044;-75
2022/06/29 09:56:29;;;;;;;10.38;4.93;;;38.60;48.60;;;;;;5053783;28;20048;-81
2022/06/29 09:59:01;;;;;;;8.15;4.00;;;38.90;47.50;;;;;;5066602;28;20024;-77
2022/06/29 10:04:14;;;;;;;8.60;4.05;;;38.50;47.10;;;;;;5053041;28;20163;-78
2022/06/29 10:06:40;;;;;;;11.43;4.30;;;38.10;47.10;;;;;;5067658;28;20376;-77
2022/06/29 10:09:06;;;;;;;6.47;4.20;;;38.10;47.50;;;;;;5080671;28;20024;-81
2022/06/29 10:14:43;;;;;;;6.72;4.20;;;38.30;45.70;;;;;;5084860;28;20075;-80
2022/06/29 10:17:58;;;;;;;5.07;4.18;;;37.90;46.80;;;;;;5067903;28;20033;-81
2022/06/29 10:20:43;;;;;;;6.85;4.65;;;37.60;46.10;;;;;;5064494;28;20123;-79
2022/06/29 10:23:48;;;;;;;6.00;4.18;;;37.40;46.90;;;;;;5033145;28;20420;-77
2022/06/29 10:26:32;;;;;;;6.75;4.30;;;38.00;47.30;;;;;;5050177;28;20040;-77
2022/06/29 10:29:10;;;;;;;9.23;4.25;;;38.70;47.70;;;;;;5032218;28;20126;-77
2022/06/29 10:32:08;;;;;;;7.00;3.83;;;38.70;47.30;;;;;;5019782;28;20041;-77
2022/06/29 10:34:34;;;;;;;5.65;4.63;;;38.70;46.70;;;;;;5037814;28;20037;-80
2022/06/29 10:37:02;;;;;;;5.20;4.32;;;38.90;46.90;;;;;;5028401;28;20036;-77
2022/06/29 10:39:48;;;;;;;8.20;4.20;;;39.30;45.90;;;;;;5048241;28;20037;-77
2022/06/29 10:45:08;;;;;;;6.47;4.47;;;39.50;45.20;;;;;;5040155;28;20102;-77
2022/06/29 10:47:34;;;;;;;6.57;4.20;;;39.40;46.30;;;;;;5028268;28;20026;-78
2022/06/29 10:50:16;;;;;;;5.97;4.00;;;39.80;46.10;;;;;;5029104;28;20048;-80
2022/06/29 10:52:45;;;;;;;5.28;4.00;;;39.50;45.00;;;;;;5010465;28;20026;-79
2022/06/29 10:55:12;;;;;;;4.88;4.25;;;39.40;45.70;;;;;;5000489;28;20673;-79
2022/06/29 10:57:40;;;;;;;12.35;4.63;;;39.70;46.20;;;;;;5045189;28;20123;-76
2022/06/29 11:00:10;;;;;;;6.05;4.20;;;40.00;44.60;;;;;;5054472;28;20136;-76
2022/06/29 11:02:37;;;;;;;6.03;3.80;;;40.20;45.00;;;;;;5069745;28;20357;-79
2022/06/29 11:05:04;;;;;;;7.10;3.80;;;40.30;44.50;;;;;;5052963;28;20040;-78
2022/06/29 11:12:58;;;;;;;7.50;4.18;;;39.00;44.80;;;;;;5053440;28;20032;-77
2022/06/29 11:15:41;;;;;;;7.22;3.70;;;39.50;46.50;;;;;;5066845;28;20036;-78
2022/06/29 11:18:12;;;;;;;6.13;3.95;;;39.80;45.10;;;;;;5070486;28;20035;-89
2022/06/29 11:20:39;;;;;;;7.05;4.05;;;39.70;44.80;;;;;;5070179;28;20419;-87
2022/06/29 11:23:12;;;;;;;6.05;4.00;;;39.40;44.90;;;;;;5060285;28;20883;-79
2022/06/29 11:25:47;;;;;;;7.03;3.92;;;39.40;46.00;;;;;;5050027;28;20033;-79
2022/06/29 11:28:16;;;;;;;6.00;3.67;;;39.40;45.60;;;;;;5051276;28;20064;-77
2022/06/29 11:30:41;;;;;;;5.68;3.80;;;39.70;45.50;;;;;;5049529;28;20040;-78
2022/06/29 11:33:12;;;;;;;4.75;3.80;;;39.60;44.80;;;;;;5051690;28;20060;-79
2022/06/29 11:35:39;;;;;;;7.70;3.72;;;39.50;43.90;;;;;;5054844;28;20058;-81
2022/06/29 11:38:07;;;;;;;7.13;3.75;;;39.20;43.50;;;;;;5062183;28;20027;-79
2022/06/29 11:40:41;;;;;;;6.45;4.03;;;39.10;44.60;;;;;;5051749;28;20048;-81
2022/06/29 11:43:13;;;;;;;4.78;3.80;;;39.20;44.40;;;;;;5055328;28;20100;-81
2022/06/29 11:45:46;;;;;;;6.78;3.95;;;39.10;44.70;;;;;;5048494;28;20024;-79
2022/06/29 11:49:33;;;;;;;6.53;4.00;;;39.00;45.20;;;;;;5050399;28;20548;-76
2022/06/29 11:51:24;;;;;;;5.43;4.00;;;39.20;45.00;;;;;;5069362;28;20048;-81
2022/06/29 11:53:54;;;;;;;5.88;3.92;;;39.10;45.10;;;;;;5069094;28;20032;-79
2022/06/29 11:56:23;;;;;;;8.75;4.10;;;39.20;45.00;;;;;;5057003;28;20049;-77
2022/06/29 11:58:52;;;;;;;4.80;3.72;;;39.60;46.00;;;;;;5065414;28;20060;-85
2022/06/29 12:01:19;;;;;;;6.47;4.20;;;40.00;44.50;;;;;;5066275;28;20036;-83
2022/06/29 12:03:50;;;;;;;7.00;3.88;;;40.20;44.40;;;;;;5054383;28;20102;-79
2022/06/29 12:06:17;;;;;;;7.07;3.80;;;39.80;43.30;;;;;;5050067;28;20029;-77
2022/06/29 12:08:44;;;;;;;4.80;3.90;;;39.00;43.90;;;;;;5048652;28;20040;-78
2022/06/29 12:11:09;;;;;;;5.07;3.50;;;39.00;44.80;;;;;;5049341;28;20492;-78
2022/06/29 12:13:36;;;;;;;8.38;4.00;;;39.40;44.30;;;;;;5055037;28;20112;-77
2022/06/29 12:16:02;;;;;;;5.85;3.70;;;39.50;44.40;;;;;;5069437;28;20032;-78
2022/06/29 12:18:27;;;;;;;8.32;3.78;;;39.70;43.50;;;;;;5070463;28;20391;-78
2022/06/29 12:20:53;;;;;;;16.15;4.40;;;39.20;42.50;;;;;;5069505;28;20158;-86
2022/06/29 12:23:19;;;;;;;6.15;3.63;;;39.20;43.20;;;;;;5070196;28;21347;-79
2022/06/29 12:25:45;;;;;;;8.05;3.80;;;39.40;43.00;;;;;;5079044;28;20082;-80
2022/06/29 12:28:11;;;;;;;6.13;3.72;;;39.50;43.40;;;;;;5090425;28;20016;-80
2022/06/29 12:30:38;;;;;;;5.55;3.60;;;39.10;43.30;;;;;;5070805;28;20028;-78
2022/06/29 12:33:06;;;;;;;6.38;3.60;;;39.20;44.20;;;;;;5065079;28;20449;-82
2022/06/29 12:35:31;;;;;;;6.20;3.88;;;39.50;42.90;;;;;;5057425;28;20033;-84
2022/06/29 12:37:57;;;;;;;4.80;3.47;;;39.30;43.70;;;;;;5060266;28;20070;-77
2022/06/29 12:40:25;;;;;;;6.25;3.30;;;39.40;43.50;;;;;;5070139;28;20447;-79
2022/06/29 12:42:52;;;;;;;7.05;3.92;;;39.40;43.00;;;;;;5064414;28;20044;-78
2022/06/29 12:45:18;;;;;;;4.93;3.50;;;39.00;43.00;;;;;;5052199;28;20094;-76
2022/06/29 12:47:44;;;;;;;7.10;3.83;;;38.60;43.20;;;;;;5074568;28;20383;-85
2022/06/29 12:50:10;;;;;;;6.20;3.70;;;38.80;43.60;;;;;;5053651;28;20037;-79
2022/06/29 12:52:40;;;;;;;6.60;3.85;;;39.40;42.80;;;;;;5070843;28;20020;-76
2022/06/29 12:55:07;;;;;;;5.82;3.50;;;39.40;42.60;;;;;;5075264;28;20056;-80
2022/06/29 12:57:33;;;;;;;11.10;3.60;;;39.30;42.40;;;;;;5059230;28;20035;-77
2022/06/29 12:59:59;;;;;;;6.97;3.60;;;39.30;42.80;;;;;;5061549;28;20028;-79
2022/06/29 13:02:25;;;;;;;7.18;3.70;;;39.40;42.70;;;;;;5089282;28;20529;-82
2022/06/29 13:04:51;;;;;;;6.60;3.67;;;39.00;42.40;;;;;;5063410;28;20032;-78
2022/06/29 13:07:17;;;;;;;7.60;3.78;;;38.10;43.10;;;;;;5070747;28;20034;-81